createdAt,value
2017-11-04T00:00:25.569Z,0
2017-11-04T00:01:25.216Z,0
2017-11-04T00:02:25.546Z,0
2017-11-04T00:03:25.511Z,0
2017-11-04T00:04:25.503Z,0
2017-11-04T00:05:25.136Z,0
2017-11-04T00:06:24.793Z,0
2017-11-04T00:07:25.590Z,0
2017-11-04T00:08:24.755Z,0
2017-11-04T00:09:25.729Z,0
2017-11-04T00:10:25.040Z,0
2017-11-04T00:11:25.033Z,0
2017-11-04T00:12:25.107Z,0
2017-11-04T00:13:24.660Z,0
2017-11-04T00:14:25.359Z,0
2017-11-04T00:15:25.286Z,0
2017-11-04T00:16:25.266Z,0
2017-11-04T00:17:25.256Z,0
2017-11-04T00:18:24.891Z,0
2017-11-04T00:19:24.875Z,0
2017-11-04T00:20:24.883Z,0
2017-11-04T00:21:25.503Z,0
2017-11-04T00:22:24.823Z,0
2017-11-04T00:23:25.132Z,0
2017-11-04T00:24:24.778Z,0
2017-11-04T00:25:25.095Z,0
2017-11-04T00:26:24.737Z,0
2017-11-04T00:27:25.163Z,0
2017-11-04T00:28:25.039Z,0
2017-11-04T00:29:24.676Z,0
2017-11-04T00:30:25.014Z,0
2017-11-04T00:31:24.311Z,0
2017-11-04T00:32:24.624Z,0
2017-11-04T00:33:24.941Z,0
2017-11-04T00:34:24.921Z,0
2017-11-04T00:35:25.245Z,0
2017-11-04T00:36:24.548Z,0
2017-11-04T00:37:24.859Z,0
2017-11-04T00:38:24.516Z,0
2017-11-04T00:39:25.157Z,0
2017-11-04T00:40:24.820Z,0
2017-11-04T00:41:24.449Z,0
2017-11-04T00:42:24.200Z,0
2017-11-04T00:43:24.417Z,0
2017-11-04T00:44:24.757Z,0
2017-11-04T00:45:24.722Z,0
2017-11-04T00:46:24.386Z,0
2017-11-04T00:47:24.347Z,0
2017-11-04T00:48:24.318Z,0
2017-11-04T00:49:24.298Z,0
2017-11-04T00:50:24.952Z,0
2017-11-04T00:51:24.261Z,0
2017-11-04T00:52:24.675Z,0
2017-11-04T00:53:24.893Z,0
2017-11-04T00:54:24.893Z,0
2017-11-04T00:55:24.520Z,0
2017-11-04T00:56:24.847Z,0
2017-11-04T00:57:24.146Z,0
2017-11-04T00:58:24.465Z,0
2017-11-04T00:59:24.443Z,0
2017-11-04T01:00:24.793Z,0
2017-11-04T01:01:24.074Z,0
2017-11-04T01:02:24.590Z,0
2017-11-04T01:03:23.850Z,0
2017-11-04T01:04:24.353Z,0
2017-11-04T01:05:24.341Z,0
2017-11-04T01:06:24.331Z,0
2017-11-04T01:07:24.630Z,0
2017-11-04T01:08:23.940Z,0
2017-11-04T01:09:23.595Z,0
2017-11-04T01:10:24.575Z,0
2017-11-04T01:11:24.228Z,0
2017-11-04T01:12:23.879Z,0
2017-11-04T01:13:23.843Z,0
2017-11-04T01:14:23.828Z,0
2017-11-04T01:15:24.141Z,0
2017-11-04T01:16:23.455Z,0
2017-11-04T01:17:24.121Z,0
2017-11-04T01:18:24.097Z,0
2017-11-04T01:19:24.413Z,0
2017-11-04T01:20:24.409Z,0
2017-11-04T01:21:23.699Z,0
2017-11-04T01:22:24.010Z,0
2017-11-04T01:23:24.427Z,0
2017-11-04T01:24:23.975Z,0
2017-11-04T01:25:24.294Z,0
2017-11-04T01:26:23.266Z,0
2017-11-04T01:27:23.580Z,0
2017-11-04T01:28:23.561Z,0
2017-11-04T01:29:23.554Z,0
2017-11-04T01:30:23.858Z,0
2017-11-04T01:31:23.508Z,0
2017-11-04T01:32:24.167Z,0
2017-11-04T01:33:23.569Z,0
2017-11-04T01:34:23.450Z,0
2017-11-04T01:35:23.765Z,0
2017-11-04T01:36:23.413Z,0
2017-11-04T01:37:23.728Z,0
2017-11-04T01:38:23.729Z,0
2017-11-04T01:39:23.888Z,0
2017-11-04T01:40:23.337Z,0
2017-11-04T01:41:23.647Z,0
2017-11-04T01:42:23.636Z,0
2017-11-04T01:43:23.052Z,0
2017-11-04T01:44:22.932Z,0
2017-11-04T01:45:23.579Z,0
2017-11-04T01:46:23.561Z,0
2017-11-04T01:47:23.543Z,0
2017-11-04T01:48:23.519Z,0
2017-11-04T01:49:23.841Z,0
2017-11-04T01:50:23.152Z,0
2017-11-04T01:51:23.460Z,0
2017-11-04T01:52:23.447Z,0
2017-11-04T01:53:23.425Z,0
2017-11-04T01:54:23.080Z,0
2017-11-04T01:55:23.058Z,0
2017-11-04T01:56:23.375Z,0
2017-11-04T01:57:23.695Z,0
2017-11-04T01:58:22.999Z,0
2017-11-04T01:59:23.668Z,0
2017-11-04T02:00:23.297Z,0
2017-11-04T02:01:23.304Z,0
2017-11-04T02:02:22.928Z,0
2017-11-04T02:03:23.245Z,0
2017-11-04T02:04:23.224Z,0
2017-11-04T02:05:23.200Z,0
2017-11-04T02:06:22.511Z,0
2017-11-04T02:07:22.832Z,0
2017-11-04T02:08:22.812Z,0
2017-11-04T02:09:22.894Z,0
2017-11-04T02:10:23.108Z,0
2017-11-04T02:11:23.088Z,0
2017-11-04T02:12:22.743Z,0
2017-11-04T02:13:23.057Z,0
2017-11-04T02:14:22.801Z,0
2017-11-04T02:15:23.358Z,0
2017-11-04T02:16:22.694Z,0
2017-11-04T02:17:22.987Z,0
2017-11-04T02:18:22.965Z,0
2017-11-04T02:19:22.950Z,0
2017-11-04T02:20:22.924Z,0
2017-11-04T02:21:22.910Z,0
2017-11-04T02:22:22.894Z,0
2017-11-04T02:23:23.202Z,0
2017-11-04T02:24:22.848Z,0
2017-11-04T02:25:22.826Z,0
2017-11-04T02:26:23.140Z,0
2017-11-04T02:27:22.458Z,0
2017-11-04T02:28:23.105Z,0
2017-11-04T02:29:23.193Z,0
2017-11-04T02:30:22.066Z,0
2017-11-04T02:31:22.383Z,0
2017-11-04T02:32:22.374Z,0
2017-11-04T02:33:22.007Z,0
2017-11-04T02:34:22.337Z,0
2017-11-04T02:35:22.308Z,0
2017-11-04T02:36:22.662Z,0
2017-11-04T02:37:22.265Z,0
2017-11-04T02:38:22.597Z,0
2017-11-04T02:39:22.901Z,0
2017-11-04T02:40:21.876Z,0
2017-11-04T02:41:22.530Z,0
2017-11-04T02:42:22.842Z,0
2017-11-04T02:43:22.488Z,0
2017-11-04T02:44:22.162Z,0
2017-11-04T02:45:22.119Z,0
2017-11-04T02:46:22.445Z,0
2017-11-04T02:47:22.748Z,0
2017-11-04T02:48:22.742Z,0
2017-11-04T02:49:21.709Z,0
2017-11-04T02:50:22.697Z,0
2017-11-04T02:51:21.670Z,0
2017-11-04T02:52:22.325Z,0
2017-11-04T02:53:22.300Z,0
2017-11-04T02:54:22.306Z,0
2017-11-04T02:55:22.602Z,0
2017-11-04T02:56:21.919Z,0
2017-11-04T02:57:21.894Z,0
2017-11-04T02:58:21.875Z,0
2017-11-04T02:59:22.196Z,0
2017-11-04T03:00:21.943Z,0
2017-11-04T03:01:22.502Z,0
2017-11-04T03:02:21.800Z,0
2017-11-04T03:03:22.118Z,0
2017-11-04T03:04:22.113Z,0
2017-11-04T03:05:22.085Z,0
2017-11-04T03:06:22.064Z,0
2017-11-04T03:07:22.043Z,0
2017-11-04T03:08:22.354Z,0
2017-11-04T03:09:22.002Z,0
2017-11-04T03:10:22.329Z,0
2017-11-04T03:11:21.636Z,0
2017-11-04T03:12:21.620Z,0
2017-11-04T03:13:21.925Z,0
2017-11-04T03:14:21.909Z,0
2017-11-04T03:15:21.661Z,0
2017-11-04T03:16:21.870Z,0
2017-11-04T03:17:21.857Z,0
2017-11-04T03:18:21.499Z,0
2017-11-04T03:19:21.487Z,0
2017-11-04T03:20:21.796Z,0
2017-11-04T03:21:21.444Z,0
2017-11-04T03:22:21.421Z,0
2017-11-04T03:23:22.069Z,0
2017-11-04T03:24:21.729Z,0
2017-11-04T03:25:22.139Z,0
2017-11-04T03:26:21.016Z,0
2017-11-04T03:27:22.018Z,0
2017-11-04T03:28:21.312Z,0
2017-11-04T03:29:21.297Z,0
2017-11-04T03:30:21.619Z,0
2017-11-04T03:31:21.611Z,0
2017-11-04T03:32:21.573Z,0
2017-11-04T03:33:21.562Z,0
2017-11-04T03:34:21.864Z,0
2017-11-04T03:35:21.184Z,0
2017-11-04T03:36:21.158Z,0
2017-11-04T03:37:21.145Z,0
2017-11-04T03:38:20.788Z,0
2017-11-04T03:39:21.436Z,0
2017-11-04T03:40:21.416Z,0
2017-11-04T03:41:21.069Z,0
2017-11-04T03:42:21.376Z,0
2017-11-04T03:43:21.367Z,0
2017-11-04T03:44:20.674Z,0
2017-11-04T03:45:21.319Z,0
2017-11-04T03:46:21.645Z,0
2017-11-04T03:47:21.286Z,0
2017-11-04T03:48:21.267Z,0
2017-11-04T03:49:21.249Z,0
2017-11-04T03:50:21.226Z,0
2017-11-04T03:51:21.544Z,0
2017-11-04T03:52:21.192Z,0
2017-11-04T03:53:20.839Z,0
2017-11-04T03:54:20.816Z,0
2017-11-04T03:55:21.472Z,0
2017-11-04T03:56:21.458Z,0
2017-11-04T03:57:21.100Z,0
2017-11-04T03:58:21.075Z,0
2017-11-04T03:59:21.057Z,0
2017-11-04T04:00:20.703Z,0
2017-11-04T04:01:20.694Z,0
2017-11-04T04:02:21.345Z,0
2017-11-04T04:03:20.989Z,0
2017-11-04T04:04:20.630Z,0
2017-11-04T04:05:21.284Z,0
2017-11-04T04:06:21.259Z,0
2017-11-04T04:07:21.239Z,0
2017-11-04T04:08:20.553Z,0
2017-11-04T04:09:20.195Z,0
2017-11-04T04:10:20.515Z,0
2017-11-04T04:11:20.921Z,0
2017-11-04T04:12:20.141Z,0
2017-11-04T04:13:21.129Z,0
2017-11-04T04:14:21.110Z,0
2017-11-04T04:15:20.421Z,0
2017-11-04T04:16:21.067Z,0
2017-11-04T04:17:20.715Z,0
2017-11-04T04:18:21.028Z,0
2017-11-04T04:19:20.005Z,0
2017-11-04T04:20:20.328Z,0
2017-11-04T04:21:20.972Z,0
2017-11-04T04:22:19.945Z,0
2017-11-04T04:23:20.261Z,0
2017-11-04T04:24:20.908Z,0
2017-11-04T04:25:20.919Z,0
2017-11-04T04:26:20.974Z,0
2017-11-04T04:27:19.853Z,0
2017-11-04T04:28:20.832Z,0
2017-11-04T04:29:20.148Z,0
2017-11-04T04:30:20.132Z,0
2017-11-04T04:31:20.444Z,0
2017-11-04T04:32:20.092Z,0
2017-11-04T04:33:19.737Z,0
2017-11-04T04:34:20.052Z,0
2017-11-04T04:35:20.034Z,0
2017-11-04T04:36:20.014Z,0
2017-11-04T04:37:19.994Z,0
2017-11-04T04:38:20.328Z,0
2017-11-04T04:39:19.957Z,0
2017-11-04T04:40:20.287Z,0
2017-11-04T04:41:20.357Z,0
2017-11-04T04:42:20.251Z,0
2017-11-04T04:43:20.217Z,0
2017-11-04T04:44:20.538Z,0
2017-11-04T04:45:19.848Z,0
2017-11-04T04:46:20.562Z,0
2017-11-04T04:47:20.473Z,0
2017-11-04T04:48:19.793Z,0
2017-11-04T04:49:20.108Z,0
2017-11-04T04:50:19.746Z,0
2017-11-04T04:51:20.162Z,0
2017-11-04T04:52:20.387Z,0
2017-11-04T04:53:20.359Z,0
2017-11-04T04:54:19.677Z,0
2017-11-04T04:55:20.338Z,0
2017-11-04T04:56:19.974Z,0
2017-11-04T04:57:19.948Z,0
2017-11-04T04:58:19.596Z,0
2017-11-04T04:59:19.574Z,0
2017-11-04T05:00:19.559Z,0
2017-11-04T05:01:20.231Z,0
2017-11-04T05:02:19.848Z,0
2017-11-04T05:03:19.168Z,0
2017-11-04T05:04:19.478Z,0
2017-11-04T05:05:19.798Z,0
2017-11-04T05:06:19.448Z,0
2017-11-04T05:07:19.526Z,0
2017-11-04T05:08:19.422Z,0
2017-11-04T05:09:20.048Z,0
2017-11-04T05:10:19.699Z,0
2017-11-04T05:11:20.017Z,0
2017-11-04T05:12:19.389Z,0
2017-11-04T05:13:19.306Z,0
2017-11-04T05:14:19.618Z,0
2017-11-04T05:15:19.945Z,0
2017-11-04T05:16:19.584Z,0
2017-11-04T05:17:19.337Z,0
2017-11-04T05:18:19.550Z,0
2017-11-04T05:19:19.532Z,0
2017-11-04T05:20:19.508Z,0
2017-11-04T05:21:19.148Z,0
2017-11-04T05:22:19.812Z,0
2017-11-04T05:23:19.787Z,0
2017-11-04T05:24:19.768Z,0
2017-11-04T05:25:19.072Z,0
2017-11-04T05:26:19.062Z,0
2017-11-04T05:27:19.711Z,0
2017-11-04T05:28:19.019Z,0
2017-11-04T05:29:19.338Z,0
2017-11-04T05:30:18.983Z,0
2017-11-04T05:31:19.296Z,0
2017-11-04T05:32:19.044Z,0
2017-11-04T05:33:18.927Z,0
2017-11-04T05:34:19.581Z,0
2017-11-04T05:35:19.213Z,0
2017-11-04T05:36:18.876Z,0
2017-11-04T05:37:19.228Z,0
2017-11-04T05:38:18.826Z,0
2017-11-04T05:39:18.810Z,0
2017-11-04T05:40:19.327Z,0
2017-11-04T05:41:18.774Z,0
2017-11-04T05:42:19.086Z,0
2017-11-04T05:43:19.410Z,0
2017-11-04T05:44:18.714Z,0
2017-11-04T05:45:18.702Z,0
2017-11-04T05:46:19.016Z,0
2017-11-04T05:47:19.094Z,0
2017-11-04T05:48:18.979Z,0
2017-11-04T05:49:19.284Z,0
2017-11-04T05:50:18.938Z,0
2017-11-04T05:51:18.926Z,0
2017-11-04T05:52:18.911Z,0
2017-11-04T05:53:18.921Z,0
2017-11-04T05:54:18.857Z,0
2017-11-04T05:55:18.847Z,0
2017-11-04T05:56:19.156Z,0
2017-11-04T05:57:18.465Z,0
2017-11-04T05:58:18.456Z,0
2017-11-04T05:59:19.106Z,4
2017-11-04T06:00:18.413Z,4
2017-11-04T06:01:18.733Z,0
2017-11-04T06:02:18.813Z,0
2017-11-04T06:03:18.682Z,4
2017-11-04T06:04:18.334Z,4
2017-11-04T06:05:18.978Z,4
2017-11-04T06:06:18.960Z,4
2017-11-04T06:07:18.944Z,8
2017-11-04T06:08:18.261Z,4
2017-11-04T06:09:17.912Z,8
2017-11-04T06:10:18.893Z,8
2017-11-04T06:11:18.198Z,12
2017-11-04T06:12:18.527Z,12
2017-11-04T06:13:17.837Z,16
2017-11-04T06:14:18.146Z,16
2017-11-04T06:15:18.789Z,20
2017-11-04T06:16:17.773Z,24
2017-11-04T06:17:18.085Z,28
2017-11-04T06:18:18.778Z,32
2017-11-04T06:19:18.050Z,36
2017-11-04T06:20:18.036Z,36
2017-11-04T06:21:18.699Z,44
2017-11-04T06:22:18.672Z,44
2017-11-04T06:23:18.310Z,52
2017-11-04T06:24:18.297Z,56
2017-11-04T06:25:18.602Z,64
2017-11-04T06:26:17.911Z,68
2017-11-04T06:27:17.893Z,76
2017-11-04T06:28:18.211Z,84
2017-11-04T06:29:17.852Z,92
2017-11-04T06:30:17.840Z,100
2017-11-04T06:31:18.502Z,116
2017-11-04T06:32:18.136Z,128
2017-11-04T06:33:18.240Z,140
2017-11-04T06:34:17.776Z,156
2017-11-04T06:35:18.093Z,172
2017-11-04T06:36:18.409Z,188
2017-11-04T06:37:17.713Z,204
2017-11-04T06:38:18.032Z,220
2017-11-04T06:39:17.998Z,236
2017-11-04T06:40:17.983Z,252
2017-11-04T06:41:18.299Z,264
2017-11-04T06:42:18.292Z,284
2017-11-04T06:43:18.043Z,296
2017-11-04T06:44:17.574Z,316
2017-11-04T06:45:17.224Z,324
2017-11-04T06:46:17.870Z,332
2017-11-04T06:47:17.869Z,332
2017-11-04T06:48:17.498Z,324
2017-11-04T06:49:17.827Z,324
2017-11-04T06:50:18.138Z,348
2017-11-04T06:51:17.440Z,408
2017-11-04T06:52:18.109Z,468
2017-11-04T06:53:18.186Z,520
2017-11-04T06:54:17.725Z,556
2017-11-04T06:55:18.059Z,596
2017-11-04T06:56:17.345Z,632
2017-11-04T06:57:17.330Z,676
2017-11-04T06:58:17.323Z,720
2017-11-04T06:59:17.634Z,768
2017-11-04T07:00:17.623Z,808
2017-11-04T07:01:17.929Z,836
2017-11-04T07:02:17.248Z,868
2017-11-04T07:03:17.546Z,896
2017-11-04T07:04:17.199Z,916
2017-11-04T07:05:17.512Z,928
2017-11-04T07:06:17.174Z,944
2017-11-04T07:07:17.478Z,968
2017-11-04T07:08:17.464Z,996
2017-11-04T07:09:17.437Z,1020
2017-11-04T07:10:17.423Z,1036
2017-11-04T07:11:17.402Z,1040
2017-11-04T07:12:16.711Z,1044
2017-11-04T07:13:17.898Z,1052
2017-11-04T07:14:17.349Z,1088
2017-11-04T07:15:17.330Z,1188
2017-11-04T07:16:16.974Z,1308
2017-11-04T07:17:16.958Z,1444
2017-11-04T07:18:17.281Z,1476
2017-11-04T07:19:17.585Z,1440
2017-11-04T07:20:17.245Z,1424
2017-11-04T07:21:16.892Z,1376
2017-11-04T07:22:16.862Z,1344
2017-11-04T07:23:17.658Z,1316
2017-11-04T07:24:16.829Z,1324
2017-11-04T07:25:16.478Z,1256
2017-11-04T07:26:17.124Z,1236
2017-11-04T07:27:16.771Z,1252
2017-11-04T07:28:16.753Z,1288
2017-11-04T07:29:17.400Z,1332
2017-11-04T07:30:17.051Z,1388
2017-11-04T07:31:17.363Z,1416
2017-11-04T07:32:16.678Z,1484
2017-11-04T07:33:16.656Z,1568
2017-11-04T07:34:16.982Z,1696
2017-11-04T07:35:16.955Z,1788
2017-11-04T07:36:16.946Z,1868
2017-11-04T07:37:16.586Z,1968
2017-11-04T07:38:16.915Z,2016
2017-11-04T07:39:16.884Z,2196
2017-11-04T07:40:16.735Z,2580
2017-11-04T07:41:16.551Z,2872
2017-11-04T07:42:16.160Z,2888
2017-11-04T07:43:16.482Z,2820
2017-11-04T07:44:16.828Z,2776
2017-11-04T07:45:16.782Z,2628
2017-11-04T07:46:16.755Z,2488
2017-11-04T07:47:16.738Z,2248
2017-11-04T07:48:17.058Z,1768
2017-11-04T07:49:16.802Z,1536
2017-11-04T07:50:17.025Z,1372
2017-11-04T07:51:15.999Z,1356
2017-11-04T07:52:16.657Z,1304
2017-11-04T07:53:16.626Z,1204
2017-11-04T07:54:16.616Z,1136
2017-11-04T07:55:16.589Z,1128
2017-11-04T07:56:16.587Z,1116
2017-11-04T07:57:16.225Z,1072
2017-11-04T07:58:15.873Z,1052
2017-11-04T07:59:16.963Z,1056
2017-11-04T08:00:15.837Z,1100
2017-11-04T08:01:15.821Z,1144
2017-11-04T08:02:16.478Z,1212
2017-11-04T08:03:16.452Z,1292
2017-11-04T08:04:16.100Z,1424
2017-11-04T08:05:16.750Z,1672
2017-11-04T08:06:15.734Z,1900
2017-11-04T08:07:16.389Z,2108
2017-11-04T08:08:16.364Z,2376
2017-11-04T08:09:16.699Z,2528
2017-11-04T08:10:16.713Z,2492
2017-11-04T08:11:16.323Z,2588
2017-11-04T08:12:15.631Z,2828
2017-11-04T08:13:16.283Z,2824
2017-11-04T08:14:16.274Z,2840
2017-11-04T08:15:16.576Z,2864
2017-11-04T08:16:16.561Z,2804
2017-11-04T08:17:16.206Z,2672
2017-11-04T08:18:16.541Z,2744
2017-11-04T08:19:16.272Z,2972
2017-11-04T08:20:16.156Z,2964
2017-11-04T08:21:16.146Z,2916
2017-11-04T08:22:15.789Z,2892
2017-11-04T08:23:16.111Z,3060
2017-11-04T08:24:15.767Z,3172
2017-11-04T08:25:15.752Z,3208
2017-11-04T08:26:16.055Z,3292
2017-11-04T08:27:16.398Z,3444
2017-11-04T08:28:15.689Z,3496
2017-11-04T08:29:16.100Z,3492
2017-11-04T08:30:15.980Z,3452
2017-11-04T08:31:16.308Z,3416
2017-11-04T08:32:15.293Z,3500
2017-11-04T08:33:15.943Z,3732
2017-11-04T08:34:15.948Z,4240
2017-11-04T08:35:16.235Z,4244
2017-11-04T08:36:15.884Z,4232
2017-11-04T08:37:15.529Z,4612
2017-11-04T08:38:15.848Z,5196
2017-11-04T08:39:15.832Z,5344
2017-11-04T08:40:15.817Z,5912
2017-11-04T08:41:15.800Z,5596
2017-11-04T08:42:16.113Z,5416
2017-11-04T08:43:16.106Z,5492
2017-11-04T08:44:15.853Z,5532
2017-11-04T08:45:16.068Z,5456
2017-11-04T08:46:15.388Z,5440
2017-11-04T08:47:15.702Z,5320
2017-11-04T08:48:15.685Z,5256
2017-11-04T08:49:15.669Z,5168
2017-11-04T08:50:14.984Z,5064
2017-11-04T08:51:15.631Z,5064
2017-11-04T08:52:15.281Z,5116
2017-11-04T08:53:15.609Z,5164
2017-11-04T08:54:15.698Z,5232
2017-11-04T08:55:15.571Z,5232
2017-11-04T08:56:15.894Z,5352
2017-11-04T08:57:15.213Z,5348
2017-11-04T08:58:15.528Z,5304
2017-11-04T08:59:15.172Z,5272
2017-11-04T09:00:15.489Z,5300
2017-11-04T09:01:14.814Z,5436
2017-11-04T09:02:15.471Z,5648
2017-11-04T09:03:15.780Z,5692
2017-11-04T09:04:15.790Z,6136
2017-11-04T09:05:15.434Z,7624
2017-11-04T09:06:15.063Z,8940
2017-11-04T09:07:15.378Z,8824
2017-11-04T09:08:15.705Z,8076
2017-11-04T09:09:15.349Z,7280
2017-11-04T09:10:15.339Z,6848
2017-11-04T09:11:14.981Z,6320
2017-11-04T09:12:15.305Z,5608
2017-11-04T09:13:15.283Z,6108
2017-11-04T09:14:15.274Z,7124
2017-11-04T09:15:15.027Z,7332
2017-11-04T09:16:15.240Z,7128
2017-11-04T09:17:15.232Z,7232
2017-11-04T09:18:14.544Z,6712
2017-11-04T09:19:15.202Z,6648
2017-11-04T09:20:15.182Z,6172
2017-11-04T09:21:15.168Z,6148
2017-11-04T09:22:15.487Z,6280
2017-11-04T09:23:14.806Z,7132
2017-11-04T09:24:14.813Z,8632
2017-11-04T09:25:14.883Z,7244
2017-11-04T09:26:15.100Z,7032
2017-11-04T09:27:14.747Z,7032
2017-11-04T09:28:15.062Z,6584
2017-11-04T09:29:15.051Z,6508
2017-11-04T09:30:14.695Z,6072
2017-11-04T09:31:15.038Z,6040
2017-11-04T09:32:15.007Z,6072
2017-11-04T09:33:15.330Z,5864
2017-11-04T09:34:15.333Z,5420
2017-11-04T09:35:15.059Z,6512
2017-11-04T09:36:15.294Z,7644
2017-11-04T09:37:14.618Z,7324
2017-11-04T09:38:14.929Z,8980
2017-11-04T09:39:15.253Z,7696
2017-11-04T09:40:14.820Z,5520
2017-11-04T09:41:14.548Z,5688
2017-11-04T09:42:14.869Z,5232
2017-11-04T09:43:14.188Z,5072
2017-11-04T09:44:14.841Z,6028
2017-11-04T09:45:14.954Z,6756
2017-11-04T09:46:15.193Z,7440
2017-11-04T09:47:14.464Z,8936
2017-11-04T09:48:15.140Z,8840
2017-11-04T09:49:15.111Z,8020
2017-11-04T09:50:14.420Z,5960
2017-11-04T09:51:14.410Z,6924
2017-11-04T09:52:14.726Z,7572
2017-11-04T09:53:14.717Z,9096
2017-11-04T09:54:14.705Z,9732
2017-11-04T09:55:15.126Z,12828
2017-11-04T09:56:15.006Z,10832
2017-11-04T09:57:14.992Z,8804
2017-11-04T09:58:14.668Z,8520
2017-11-04T09:59:14.297Z,8988
2017-11-04T10:00:14.953Z,11968
2017-11-04T10:01:14.280Z,13564
2017-11-04T10:02:14.259Z,10884
2017-11-04T10:03:14.248Z,9496
2017-11-04T10:04:13.897Z,11764
2017-11-04T10:05:13.885Z,11420
2017-11-04T10:06:14.567Z,13196
2017-11-04T10:07:14.528Z,7884
2017-11-04T10:08:14.173Z,10940
2017-11-04T10:09:14.499Z,8476
2017-11-04T10:10:14.590Z,7780
2017-11-04T10:11:14.472Z,7760
2017-11-04T10:12:14.468Z,7204
2017-11-04T10:13:14.444Z,9976
2017-11-04T10:14:14.431Z,12032
2017-11-04T10:15:14.415Z,11060
2017-11-04T10:16:14.415Z,6332
2017-11-04T10:17:14.070Z,6176
2017-11-04T10:18:14.379Z,6352
2017-11-04T10:19:13.696Z,5160
2017-11-04T10:20:14.454Z,6980
2017-11-04T10:21:14.680Z,5652
2017-11-04T10:22:13.994Z,6388
2017-11-04T10:23:13.982Z,6644
2017-11-04T10:24:13.633Z,10788
2017-11-04T10:25:14.334Z,11540
2017-11-04T10:26:13.943Z,11676
2017-11-04T10:27:13.927Z,13132
2017-11-04T10:28:13.932Z,15240
2017-11-04T10:29:14.240Z,7660
2017-11-04T10:30:14.223Z,11156
2017-11-04T10:31:13.886Z,5876
2017-11-04T10:32:14.202Z,6760
2017-11-04T10:33:14.183Z,5896
2017-11-04T10:34:14.510Z,13908
2017-11-04T10:35:14.163Z,16864
2017-11-04T10:36:14.156Z,16160
2017-11-04T10:37:14.130Z,15680
2017-11-04T10:38:14.465Z,10040
2017-11-04T10:39:14.110Z,7004
2017-11-04T10:40:14.437Z,8180
2017-11-04T10:41:14.428Z,12332
2017-11-04T10:42:13.743Z,12120
2017-11-04T10:43:14.397Z,10596
2017-11-04T10:44:14.393Z,10108
2017-11-04T10:45:14.039Z,8488
2017-11-04T10:46:13.815Z,5964
2017-11-04T10:47:14.377Z,7012
2017-11-04T10:48:13.680Z,10368
2017-11-04T10:49:13.999Z,10336
2017-11-04T10:50:14.334Z,6664
2017-11-04T10:51:13.647Z,8252
2017-11-04T10:52:14.319Z,10408
2017-11-04T10:53:14.286Z,10312
2017-11-04T10:54:13.940Z,11256
2017-11-04T10:55:13.596Z,12372
2017-11-04T10:56:14.348Z,9860
2017-11-04T10:57:13.569Z,10724
2017-11-04T10:58:13.230Z,16224
2017-11-04T10:59:13.212Z,13684
2017-11-04T11:00:13.202Z,14180
2017-11-04T11:01:14.187Z,18816
2017-11-04T11:02:13.509Z,11668
2017-11-04T11:03:13.824Z,7724
2017-11-04T11:04:13.827Z,7952
2017-11-04T11:05:13.814Z,8532
2017-11-04T11:06:13.461Z,9144
2017-11-04T11:07:13.784Z,7868
2017-11-04T11:08:13.768Z,7204
2017-11-04T11:09:13.770Z,7352
2017-11-04T11:10:13.412Z,8576
2017-11-04T11:11:13.067Z,9248
2017-11-04T11:12:14.055Z,9124
2017-11-04T11:13:13.722Z,10816
2017-11-04T11:14:14.032Z,9024
2017-11-04T11:15:13.360Z,8880
2017-11-04T11:16:13.683Z,8864
2017-11-04T11:17:13.679Z,8988
2017-11-04T11:18:13.668Z,9148
2017-11-04T11:19:13.643Z,9304
2017-11-04T11:20:13.313Z,9392
2017-11-04T11:21:13.311Z,9452
2017-11-04T11:22:12.941Z,9644
2017-11-04T11:23:13.589Z,9896
2017-11-04T11:24:13.247Z,10240
2017-11-04T11:25:13.566Z,10520
2017-11-04T11:26:13.558Z,10748
2017-11-04T11:27:13.882Z,11064
2017-11-04T11:28:12.868Z,11544
2017-11-04T11:29:13.511Z,12244
2017-11-04T11:30:13.506Z,12800
2017-11-04T11:31:13.599Z,12400
2017-11-04T11:32:12.819Z,11828
2017-11-04T11:33:13.466Z,11348
2017-11-04T11:34:13.124Z,10960
2017-11-04T11:35:12.777Z,10712
2017-11-04T11:36:13.443Z,10452
2017-11-04T11:37:13.802Z,10120
2017-11-04T11:38:13.428Z,9660
2017-11-04T11:39:13.770Z,9416
2017-11-04T11:40:13.263Z,9480
2017-11-04T11:41:13.383Z,10024
2017-11-04T11:42:13.022Z,12876
2017-11-04T11:43:13.349Z,14804
2017-11-04T11:44:12.662Z,17920
2017-11-04T11:45:12.991Z,36032
2017-11-04T11:46:13.317Z,30144
2017-11-04T11:47:13.626Z,37376
2017-11-04T11:48:13.622Z,36352
2017-11-04T11:49:13.611Z,34240
2017-11-04T11:50:12.925Z,31008
2017-11-04T11:51:13.268Z,26176
2017-11-04T11:52:13.256Z,24608
2017-11-04T11:53:13.224Z,27424
2017-11-04T11:54:13.220Z,31424
2017-11-04T11:55:12.886Z,29184
2017-11-04T11:56:13.538Z,24192
2017-11-04T11:57:13.192Z,25184
2017-11-04T11:58:13.193Z,15556
2017-11-04T11:59:13.180Z,14756
2017-11-04T12:00:13.161Z,23552
2017-11-04T12:01:13.175Z,15560
2017-11-04T12:02:13.576Z,13668
2017-11-04T12:03:12.468Z,11260
2017-11-04T12:04:12.798Z,12892
2017-11-04T12:05:12.790Z,30400
2017-11-04T12:06:13.114Z,10776
2017-11-04T12:07:13.118Z,9360
2017-11-04T12:08:13.105Z,9340
2017-11-04T12:09:12.430Z,10468
2017-11-04T12:10:12.754Z,11556
2017-11-04T12:11:12.750Z,11172
2017-11-04T12:12:12.873Z,11556
2017-11-04T12:13:13.068Z,12056
2017-11-04T12:14:12.725Z,11984
2017-11-04T12:15:12.710Z,12284
2017-11-04T12:16:12.702Z,12088
2017-11-04T12:17:13.375Z,12468
2017-11-04T12:18:12.685Z,17408
2017-11-04T12:19:12.676Z,13000
2017-11-04T12:20:12.330Z,9836
2017-11-04T12:21:12.660Z,9560
2017-11-04T12:22:13.115Z,10328
2017-11-04T12:23:12.977Z,13376
2017-11-04T12:24:12.630Z,15308
2017-11-04T12:25:12.976Z,11908
2017-11-04T12:26:12.965Z,18048
2017-11-04T12:27:12.327Z,14176
2017-11-04T12:28:12.937Z,21568
2017-11-04T12:29:12.602Z,26848
2017-11-04T12:30:12.578Z,30176
2017-11-04T12:31:13.301Z,27744
2017-11-04T12:32:12.571Z,14964
2017-11-04T12:33:12.921Z,21312
2017-11-04T12:34:12.884Z,34592
2017-11-04T12:35:12.546Z,32416
2017-11-04T12:36:13.207Z,15576
2017-11-04T12:37:12.865Z,23200
2017-11-04T12:38:12.862Z,33792
2017-11-04T12:39:12.849Z,29728
2017-11-04T12:40:12.842Z,27584
2017-11-04T12:41:12.501Z,16352
2017-11-04T12:42:12.832Z,29824
2017-11-04T12:43:12.492Z,29152
2017-11-04T12:44:13.167Z,30112
2017-11-04T12:45:12.481Z,30880
2017-11-04T12:46:12.798Z,30528
2017-11-04T12:47:12.789Z,21504
2017-11-04T12:48:12.787Z,26816
2017-11-04T12:49:12.464Z,24672
2017-11-04T12:50:13.130Z,23040
2017-11-04T12:51:13.115Z,22432
2017-11-04T12:52:13.111Z,22720
2017-11-04T12:53:12.772Z,22976
2017-11-04T12:54:12.426Z,22208
2017-11-04T12:55:12.766Z,21312
2017-11-04T12:56:12.425Z,20800
2017-11-04T12:57:13.104Z,20224
2017-11-04T12:58:12.407Z,19008
2017-11-04T12:59:12.407Z,19712
2017-11-04T13:00:12.741Z,20160
2017-11-04T13:01:12.734Z,20352
2017-11-04T13:02:12.736Z,20192
2017-11-04T13:03:12.779Z,20736
2017-11-04T13:04:12.749Z,21536
2017-11-04T13:05:12.392Z,21856
2017-11-04T13:06:12.730Z,21664
2017-11-04T13:07:12.731Z,21024
2017-11-04T13:08:12.474Z,19456
2017-11-04T13:09:12.372Z,19040
2017-11-04T13:10:12.381Z,19584
2017-11-04T13:11:13.047Z,20384
2017-11-04T13:12:12.364Z,21632
2017-11-04T13:13:12.367Z,23584
2017-11-04T13:14:12.691Z,24032
2017-11-04T13:15:12.689Z,23904
2017-11-04T13:16:12.694Z,23680
2017-11-04T13:17:13.021Z,24448
2017-11-04T13:18:12.687Z,24896
2017-11-04T13:19:12.355Z,26400
2017-11-04T13:20:12.007Z,27360
2017-11-04T13:21:12.682Z,26208
2017-11-04T13:22:12.668Z,25440
2017-11-04T13:23:11.998Z,23904
2017-11-04T13:24:12.674Z,22752
2017-11-04T13:25:12.328Z,22560
2017-11-04T13:26:12.664Z,22432
2017-11-04T13:27:12.334Z,23360
2017-11-04T13:28:12.324Z,23968
2017-11-04T13:29:12.993Z,23808
2017-11-04T13:30:11.985Z,23360
2017-11-04T13:31:12.313Z,22336
2017-11-04T13:32:12.313Z,21664
2017-11-04T13:33:12.613Z,21120
2017-11-04T13:34:12.644Z,20672
2017-11-04T13:35:12.645Z,20672
2017-11-04T13:36:12.300Z,20384
2017-11-04T13:37:12.664Z,20448
2017-11-04T13:38:11.969Z,20480
2017-11-04T13:39:12.644Z,19456
2017-11-04T13:40:12.361Z,18976
2017-11-04T13:41:12.616Z,18432
2017-11-04T13:42:12.616Z,17536
2017-11-04T13:43:12.045Z,17856
2017-11-04T13:44:12.619Z,17088
2017-11-04T13:45:12.274Z,16224
2017-11-04T13:46:12.601Z,14944
2017-11-04T13:47:11.931Z,13536
2017-11-04T13:48:12.598Z,12056
2017-11-04T13:49:12.933Z,11600
2017-11-04T13:50:12.250Z,11844
2017-11-04T13:51:12.249Z,11052
2017-11-04T13:52:12.577Z,10636